Time;durP1;ratioP1;P1;durP2;ratioP2;P2;SDS_P1;SDS_P2;PMS_P1;PMS_P2;Temp;Humidity;BMP_temperature;BMP_pressure;BME280_temperature;BME280_humidity;BME280_pressure;Samples;Min_cycle;Max_cycle;Signal;HPM_P1;HPM_P2
2022/12/25 00:00:00;;;;;;;;;;;7.70;99.90;;;;;;4931532;29;19931;-77
2022/12/25 00:02:28;;;;;;;;;;;7.70;99.90;;;;;;4927670;29;19935;-77
2022/12/25 00:04:55;;;;;;;;;;;7.70;99.90;;;;;;4927958;29;20304;-77
2022/12/25 00:07:23;;;;;;;;;;;7.60;99.90;;;;;;4935485;29;20436;-77
2022/12/25 00:09:50;;;;;;;;;;;7.70;99.90;;;;;;4931872;29;19970;-77
2022/12/25 00:12:18;;;;;;;;;;;7.60;99.90;;;;;;4928289;29;19974;-76
2022/12/25 00:14:45;;;;;;;;;;;7.60;99.90;;;;;;4931151;29;19927;-76
2022/12/25 00:17:12;;;;;;;;;;;7.60;99.90;;;;;;4933965;29;19931;-77
2022/12/25 00:19:38;;;;;;;;;;;7.60;99.90;;;;;;4932796;29;19965;-76
2022/12/25 00:22:05;;;;;;;;;;;7.60;99.90;;;;;;4933050;29;19931;-77
2022/12/25 00:24:33;;;;;;;;;;;7.60;99.90;;;;;;4936430;29;19927;-77
2022/12/25 00:27:00;;;;;;;;;;;7.60;99.90;;;;;;4930139;29;19955;-77
2022/12/25 00:29:27;;;;;;;;;;;7.60;99.90;;;;;;4929042;29;19953;-76
2022/12/25 00:31:54;;;;;;;;;;;7.60;99.90;;;;;;4929665;29;20025;-77
2022/12/25 00:34:21;;;;;;;;;;;7.60;99.90;;;;;;4930045;29;19935;-77
2022/12/25 00:36:49;;;;;;;;;;;7.60;99.90;;;;;;4922508;29;19934;-77
2022/12/25 00:39:16;;;;;;;;;;;7.60;99.90;;;;;;4926445;29;20032;-77
2022/12/25 00:44:29;;;;;;;;;;;7.60;99.90;;;;;;4934997;29;20065;-77
2022/12/25 00:46:56;;;;;;;;;;;7.60;99.90;;;;;;4927803;29;20401;-76
2022/12/25 00:49:23;;;;;;;;;;;7.60;99.90;;;;;;4929180;29;19927;-77
2022/12/25 00:51:50;;;;;;;;;;;7.60;99.90;;;;;;4932180;29;19927;-77
2022/12/25 00:54:17;;;;;;;;;;;7.60;99.90;;;;;;4932631;29;19977;-77
2022/12/25 00:56:45;;;;;;;;;;;7.60;99.90;;;;;;4920060;29;19930;-76
2022/12/25 00:59:12;;;;;;;;;;;7.60;99.90;;;;;;4929536;29;19931;-76
2022/12/25 01:01:39;;;;;;;;;;;7.60;99.90;;;;;;4924263;29;19930;-77
2022/12/25 01:04:07;;;;;;;;;;;7.60;99.90;;;;;;4930807;29;20310;-75
2022/12/25 01:06:34;;;;;;;;;;;7.60;99.90;;;;;;4929788;29;20048;-78
2022/12/25 01:11:51;;;;;;;;;;;7.60;99.90;;;;;;4939649;29;19923;-78
2022/12/25 01:14:19;;;;;;;;;;;7.60;99.90;;;;;;4938731;28;19958;-78
2022/12/25 01:16:45;;;;;;;;;;;7.60;99.90;;;;;;4946514;29;19931;-78
2022/12/25 01:19:12;;;;;;;;;;;7.60;99.90;;;;;;4939745;29;19970;-78
2022/12/25 01:21:40;;;;;;;;;;;7.50;99.90;;;;;;4927214;29;19934;-79
2022/12/25 01:24:07;;;;;;;;;;;7.50;99.90;;;;;;4938865;29;19999;-78
2022/12/25 01:26:33;;;;;;;;;;;7.50;99.90;;;;;;4941562;29;20423;-78
2022/12/25 01:29:02;;;;;;;;;;;7.50;99.90;;;;;;4936926;29;19937;-78
2022/12/25 01:31:29;;;;;;;;;;;7.50;99.90;;;;;;4937739;29;19998;-78
2022/12/25 01:33:56;;;;;;;;;;;7.50;99.90;;;;;;4917269;29;19937;-78
2022/12/25 01:36:23;;;;;;;;;;;7.50;99.90;;;;;;4939953;29;20214;-78
2022/12/25 01:38:50;;;;;;;;;;;7.50;99.90;;;;;;4937817;29;19927;-78
2022/12/25 01:41:18;;;;;;;;;;;7.50;99.90;;;;;;4922576;29;21054;-78
2022/12/25 01:43:59;;;;;;;;;;;7.50;99.90;;;;;;4937239;29;19926;-78
2022/12/25 01:46:28;;;;;;;;;;;7.60;99.90;;;;;;4933914;29;19930;-78
2022/12/25 01:48:56;;;;;;;;;;;7.50;99.90;;;;;;4934834;29;20413;-79
2022/12/25 01:51:25;;;;;;;;;;;7.50;99.90;;;;;;4920577;29;19931;-78
2022/12/25 01:53:52;;;;;;;;;;;7.50;99.90;;;;;;4938342;29;19966;-78
2022/12/25 01:56:19;;;;;;;;;;;7.50;99.90;;;;;;4931882;29;19982;-77
2022/12/25 01:58:46;;;;;;;;;;;7.50;99.90;;;;;;4928182;29;19937;-77
2022/12/25 02:01:13;;;;;;;;;;;7.50;99.90;;;;;;4927807;29;19927;-76
2022/12/25 02:03:42;;;;;;;;;;;7.50;99.90;;;;;;4924124;29;19927;-76
2022/12/25 02:06:09;;;;;;;;;;;7.50;99.90;;;;;;4927742;29;19926;-77
2022/12/25 02:08:36;;;;;;;;;;;7.50;99.90;;;;;;4932208;29;20356;-77
2022/12/25 02:11:03;;;;;;;;;;;7.50;99.90;;;;;;4928781;29;19982;-76
2022/12/25 02:13:30;;;;;;;;;;;7.50;99.90;;;;;;4919716;29;20013;-77
2022/12/25 02:16:01;;;;;;;;;;;7.50;99.90;;;;;;4931982;29;20006;-77
2022/12/25 02:18:32;;;;;;;;;;;7.50;99.90;;;;;;4935715;29;19927;-76
2022/12/25 02:21:24;;;;;;;;;;;7.50;99.90;;;;;;4913707;29;20449;-76
2022/12/25 02:24:06;;;;;;;;;;;7.50;99.90;;;;;;4928428;29;20009;-77
2022/12/25 02:26:50;;;;;;;;;;;7.50;99.90;;;;;;4929340;29;19935;-77
2022/12/25 02:29:22;;;;;;;;;;;7.50;99.90;;;;;;4931847;29;19974;-76
2022/12/25 02:31:51;;;;;;;;;;;7.50;99.90;;;;;;4925954;29;20017;-77
2022/12/25 02:34:20;;;;;;;;;;;7.50;99.90;;;;;;4927504;29;20082;-77
2022/12/25 02:36:49;;;;;;;;;;;7.50;99.90;;;;;;4930811;29;20021;-76
2022/12/25 02:42:04;;;;;;;;;;;7.50;99.90;;;;;;4927906;29;19941;-77
2022/12/25 03:07:04;;;;;;;;;;;7.40;99.90;;;;;;4928534;29;20426;-77
2022/12/25 03:12:22;;;;;;;;;;;7.40;99.90;;;;;;4919381;29;19922;-77
2022/12/25 03:17:35;;;;;;;;;;;7.40;99.90;;;;;;4930240;29;20448;-77
2022/12/25 03:28:16;;;;;;;;;;;7.40;99.90;;;;;;4929191;29;20330;-77
2022/12/25 03:33:35;;;;;;;;;;;7.50;99.90;;;;;;4922718;29;19929;-78
2022/12/25 03:36:08;;;;;;;;;;;7.40;99.90;;;;;;4931239;29;19978;-77
2022/12/25 04:36:40;;;;;;;;;;;7.40;99.90;;;;;;4930508;29;20035;-77
2022/12/25 04:39:08;;;;;;;;;;;7.40;99.90;;;;;;4929608;29;19930;-77
2022/12/25 04:41:35;;;;;;;;;;;7.40;99.90;;;;;;4934107;29;19933;-77
2022/12/25 04:44:02;;;;;;;;;;;7.40;99.90;;;;;;4933756;29;20379;-77
2022/12/25 04:46:28;;;;;;;;;;;7.40;99.90;;;;;;4933037;29;19931;-78
2022/12/25 04:48:55;;;;;;;;;;;7.40;99.90;;;;;;4929419;29;19927;-77
2022/12/25 04:51:24;;;;;;;;;;;7.30;99.90;;;;;;4923379;29;19981;-76
2022/12/25 04:53:51;;;;;;;;;;;7.40;99.90;;;;;;4939455;28;20317;-77
2022/12/25 04:56:20;;;;;;;;;;;7.30;99.90;;;;;;4931693;29;19959;-77
2022/12/25 04:58:47;;;;;;;;;;;7.30;99.90;;;;;;4928758;29;20441;-77
2022/12/25 05:01:14;;;;;;;;;;;7.30;99.90;;;;;;4932170;29;19927;-77
2022/12/25 05:03:41;;;;;;;;;;;7.30;99.90;;;;;;4932982;29;19935;-76
2022/12/25 05:06:08;;;;;;;;;;;7.30;99.90;;;;;;4929815;29;19933;-77
2022/12/25 05:08:35;;;;;;;;;;;7.40;99.90;;;;;;4932115;29;20029;-77
2022/12/25 05:11:04;;;;;;;;;;;7.30;99.90;;;;;;4933232;29;20013;-77
2022/12/25 05:13:33;;;;;;;;;;;7.30;99.90;;;;;;4931107;29;19965;-77
2022/12/25 05:15:59;;;;;;;;;;;7.30;99.90;;;;;;4929488;29;19927;-76
2022/12/25 05:18:27;;;;;;;;;;;7.30;99.90;;;;;;4929943;29;20017;-77
2022/12/25 05:20:54;;;;;;;;;;;7.30;99.90;;;;;;4933016;29;19927;-76
2022/12/25 05:23:21;;;;;;;;;;;7.30;99.90;;;;;;4927200;29;20484;-76
2022/12/25 05:25:47;;;;;;;;;;;7.30;99.90;;;;;;4921704;29;19974;-76
2022/12/25 05:28:14;;;;;;;;;;;7.30;99.90;;;;;;4925426;29;19934;-76
2022/12/25 05:30:42;;;;;;;;;;;7.30;99.90;;;;;;4930217;29;20320;-76
2022/12/25 05:33:09;;;;;;;;;;;7.30;99.90;;;;;;4929445;29;19962;-76
2022/12/25 05:35:36;;;;;;;;;;;7.30;99.90;;;;;;4934074;29;19954;-77
2022/12/25 05:38:03;;;;;;;;;;;7.30;99.90;;;;;;4936726;29;19935;-77
2022/12/25 05:40:30;;;;;;;;;;;7.30;99.90;;;;;;4927725;29;19952;-76
2022/12/25 05:42:57;;;;;;;;;;;7.30;99.90;;;;;;4931065;29;20021;-77
2022/12/25 05:45:24;;;;;;;;;;;7.30;99.90;;;;;;4941597;29;19926;-76
2022/12/25 05:47:52;;;;;;;;;;;7.30;99.90;;;;;;4933468;29;19933;-77
2022/12/25 05:50:21;;;;;;;;;;;7.30;99.90;;;;;;4927781;29;20357;-77
2022/12/25 05:52:47;;;;;;;;;;;7.30;99.90;;;;;;4932803;29;19982;-76
2022/12/25 05:55:14;;;;;;;;;;;7.30;99.90;;;;;;4930605;29;19934;-77
2022/12/25 05:57:41;;;;;;;;;;;7.30;99.90;;;;;;4933128;29;19958;-77
2022/12/25 06:00:08;;;;;;;;;;;7.30;99.90;;;;;;4928444;29;19958;-77
2022/12/25 06:02:39;;;;;;;;;;;7.30;99.90;;;;;;4923630;29;19931;-79
2022/12/25 06:05:08;;;;;;;;;;;7.30;99.90;;;;;;4932106;29;19935;-78
2022/12/25 06:07:35;;;;;;;;;;;7.30;99.90;;;;;;4942474;29;19927;-78
2022/12/25 06:10:02;;;;;;;;;;;7.30;99.90;;;;;;4940229;29;20421;-78
2022/12/25 06:12:29;;;;;;;;;;;7.30;99.90;;;;;;4937366;29;19930;-78
2022/12/25 06:14:55;;;;;;;;;;;7.30;99.90;;;;;;4934574;29;20014;-77
2022/12/25 06:17:24;;;;;;;;;;;7.30;99.90;;;;;;4931784;29;19966;-76
2022/12/25 06:19:51;;;;;;;;;;;7.30;99.90;;;;;;4935226;29;19949;-78
2022/12/25 06:22:19;;;;;;;;;;;7.30;99.90;;;;;;4935252;29;19942;-77
2022/12/25 06:24:46;;;;;;;;;;;7.30;99.90;;;;;;4931773;29;20501;-77
2022/12/25 06:27:13;;;;;;;;;;;7.20;99.90;;;;;;4928507;29;20013;-76
2022/12/25 06:29:39;;;;;;;;;;;7.20;99.90;;;;;;4931137;29;19981;-77
2022/12/25 06:32:06;;;;;;;;;;;7.20;99.90;;;;;;4935552;29;20422;-78
2022/12/25 06:34:33;;;;;;;;;;;7.30;99.90;;;;;;4942957;29;19947;-78
2022/12/25 06:37:00;;;;;;;;;;;7.20;99.90;;;;;;4932772;29;19926;-79
2022/12/25 06:39:28;;;;;;;;;;;7.20;99.90;;;;;;4941117;29;19939;-77
2022/12/25 06:41:55;;;;;;;;;;;7.20;99.90;;;;;;4942548;29;19927;-78
2022/12/25 06:44:22;;;;;;;;;;;7.20;99.90;;;;;;4933614;29;19934;-76
2022/12/25 06:46:49;;;;;;;;;;;7.20;99.90;;;;;;4926190;29;20021;-78
2022/12/25 06:49:15;;;;;;;;;;;7.20;99.90;;;;;;4935203;29;20128;-78
2022/12/25 06:51:42;;;;;;;;;;;7.20;99.90;;;;;;4934840;29;19927;-78
2022/12/25 06:54:09;;;;;;;;;;;7.20;99.90;;;;;;4935073;29;19982;-77
2022/12/25 06:56:37;;;;;;;;;;;7.20;99.90;;;;;;4933670;29;19970;-78
2022/12/25 06:59:05;;;;;;;;;;;7.30;99.90;;;;;;4936706;28;19931;-78
2022/12/25 07:01:34;;;;;;;;;;;7.20;99.90;;;;;;4942096;29;19927;-78
2022/12/25 07:04:02;;;;;;;;;;;7.20;99.90;;;;;;4926269;29;19927;-78
2022/12/25 07:06:28;;;;;;;;;;;7.20;99.90;;;;;;4938091;29;20006;-78
2022/12/25 07:08:55;;;;;;;;;;;7.20;99.90;;;;;;4933244;29;19931;-78
2022/12/25 07:11:22;;;;;;;;;;;7.20;99.90;;;;;;4937747;29;20378;-78
2022/12/25 07:13:51;;;;;;;;;;;7.20;99.90;;;;;;4939202;29;19927;-77
2022/12/25 07:16:18;;;;;;;;;;;7.20;99.90;;;;;;4937809;29;19986;-79
2022/12/25 07:18:45;;;;;;;;;;;7.20;99.90;;;;;;4938959;29;19969;-78
2022/12/25 07:21:13;;;;;;;;;;;7.20;99.90;;;;;;4941047;29;20387;-78
2022/12/25 07:23:40;;;;;;;;;;;7.20;99.90;;;;;;4939071;29;19934;-78
2022/12/25 07:26:07;;;;;;;;;;;7.20;99.90;;;;;;4939434;29;20376;-79
2022/12/25 07:28:35;;;;;;;;;;;7.20;99.90;;;;;;4941219;29;19927;-80
2022/12/25 07:31:04;;;;;;;;;;;7.20;99.90;;;;;;4925159;29;20377;-78
2022/12/25 07:33:32;;;;;;;;;;;7.20;99.90;;;;;;4939088;29;19934;-78
2022/12/25 07:35:58;;;;;;;;;;;7.20;99.90;;;;;;4934480;29;19939;-79
2022/12/25 07:38:27;;;;;;;;;;;7.20;99.90;;;;;;4935967;29;19938;-79
2022/12/25 07:40:54;;;;;;;;;;;7.20;99.90;;;;;;4938263;29;20448;-78
2022/12/25 07:43:21;;;;;;;;;;;7.20;99.90;;;;;;4932779;29;20463;-79
2022/12/25 07:45:48;;;;;;;;;;;7.20;99.90;;;;;;4934277;29;21236;-78
2022/12/25 07:48:16;;;;;;;;;;;7.20;99.90;;;;;;4946572;29;19942;-79
2022/12/25 07:50:46;;;;;;;;;;;7.20;99.90;;;;;;4942404;29;19933;-79
2022/12/25 07:53:13;;;;;;;;;;;7.20;99.90;;;;;;4930993;29;19937;-78
2022/12/25 07:55:40;;;;;;;;;;;7.20;99.90;;;;;;4924707;29;19978;-79
2022/12/25 07:58:07;;;;;;;;;;;7.20;99.90;;;;;;4921279;29;19966;-78
2022/12/25 08:00:34;;;;;;;;;;;7.20;99.90;;;;;;4923795;29;19931;-79
2022/12/25 08:03:05;;;;;;;;;;;7.20;99.90;;;;;;4916627;29;19962;-79
2022/12/25 08:05:45;;;;;;;;;;;7.20;99.90;;;;;;4932081;29;19942;-78
2022/12/25 08:08:11;;;;;;;;;;;7.20;99.90;;;;;;4932854;29;21535;-78
2022/12/25 08:10:38;;;;;;;;;;;7.20;99.90;;;;;;4925408;29;19958;-79
2022/12/25 08:13:05;;;;;;;;;;;7.20;99.90;;;;;;4927053;29;20018;-78
2022/12/25 08:15:32;;;;;;;;;;;7.20;99.90;;;;;;4928114;29;20020;-78
2022/12/25 08:17:59;;;;;;;;;;;7.20;99.90;;;;;;4937155;29;19978;-78
2022/12/25 08:20:25;;;;;;;;;;;7.20;99.90;;;;;;4933497;29;19963;-79
2022/12/25 08:22:54;;;;;;;;;;;7.20;99.90;;;;;;4929606;29;20122;-81
2022/12/25 08:25:20;;;;;;;;;;;7.20;99.90;;;;;;4929313;29;19990;-82
2022/12/25 08:27:47;;;;;;;;;;;7.10;99.90;;;;;;4945218;29;19970;-82
2022/12/25 08:30:14;;;;;;;;;;;7.20;99.90;;;;;;4938351;29;19968;-79
2022/12/25 08:32:41;;;;;;;;;;;7.20;99.90;;;;;;4932510;29;21166;-80
2022/12/25 08:35:08;;;;;;;;;;;7.10;99.90;;;;;;4937210;29;19978;-82
2022/12/25 08:37:35;;;;;;;;;;;7.20;99.90;;;;;;4943862;29;19974;-79
2022/12/25 08:40:04;;;;;;;;;;;7.20;99.90;;;;;;4936870;29;19930;-81
2022/12/25 08:42:31;;;;;;;;;;;7.20;99.90;;;;;;4943375;29;19981;-77
2022/12/25 08:44:58;;;;;;;;;;;7.20;99.90;;;;;;4941787;29;19926;-78
2022/12/25 08:47:30;;;;;;;;;;;7.20;99.90;;;;;;4937396;29;19951;-80
2022/12/25 08:49:57;;;;;;;;;;;7.10;99.90;;;;;;4933860;29;20144;-81
2022/12/25 08:52:24;;;;;;;;;;;7.20;99.90;;;;;;4932710;29;19982;-80
2022/12/25 08:54:51;;;;;;;;;;;7.20;99.90;;;;;;4937940;29;19938;-80
2022/12/25 08:57:19;;;;;;;;;;;7.20;99.90;;;;;;4937914;29;19995;-80
2022/12/25 08:59:45;;;;;;;;;;;7.20;99.90;;;;;;4942975;29;19949;-81
2022/12/25 09:02:12;;;;;;;;;;;7.20;99.90;;;;;;4933028;29;19965;-80
2022/12/25 09:04:39;;;;;;;;;;;7.20;99.90;;;;;;4939104;29;19970;-80
2022/12/25 09:07:06;;;;;;;;;;;7.20;99.90;;;;;;4940150;29;20392;-79
2022/12/25 09:09:33;;;;;;;;;;;7.20;99.90;;;;;;4940155;29;19946;-82
2022/12/25 09:11:59;;;;;;;;;;;7.20;99.90;;;;;;4937661;29;20037;-81
2022/12/25 09:14:31;;;;;;;;;;;7.20;99.90;;;;;;4936837;29;20420;-79
2022/12/25 09:16:58;;;;;;;;;;;7.20;99.90;;;;;;4932424;29;19935;-80
2022/12/25 09:19:25;;;;;;;;;;;7.20;99.90;;;;;;4943159;29;20025;-79
2022/12/25 09:21:52;;;;;;;;;;;7.20;99.90;;;;;;4939004;29;19932;-80
2022/12/25 09:24:19;;;;;;;;;;;7.20;99.90;;;;;;4940187;29;19927;-80
2022/12/25 09:26:46;;;;;;;;;;;7.30;99.90;;;;;;4937852;29;19935;-80
2022/12/25 09:29:13;;;;;;;;;;;7.20;99.90;;;;;;4940406;29;19927;-80
2022/12/25 09:31:41;;;;;;;;;;;7.30;99.90;;;;;;4944139;29;19934;-80
2022/12/25 09:34:09;;;;;;;;;;;7.30;99.90;;;;;;4936212;28;20496;-77
2022/12/25 09:36:36;;;;;;;;;;;7.30;99.90;;;;;;4935543;29;20457;-80
2022/12/25 09:39:03;;;;;;;;;;;7.30;99.90;;;;;;4939938;29;19935;-80
2022/12/25 09:41:32;;;;;;;;;;;7.30;99.90;;;;;;4937826;29;19927;-80
2022/12/25 09:44:02;;;;;;;;;;;7.30;99.90;;;;;;4929830;29;19934;-80
2022/12/25 09:46:31;;;;;;;;;;;7.30;99.90;;;;;;4933984;29;19937;-80
2022/12/25 09:49:03;;;;;;;;;;;7.30;99.90;;;;;;4936465;29;20385;-81
2022/12/25 09:51:33;;;;;;;;;;;7.30;99.90;;;;;;4931278;29;19966;-78
2022/12/25 09:54:03;;;;;;;;;;;7.30;99.90;;;;;;4926215;29;19938;-80
2022/12/25 09:56:32;;;;;;;;;;;7.30;99.90;;;;;;4942742;29;20033;-78
2022/12/25 09:58:59;;;;;;;;;;;7.30;99.90;;;;;;4932807;29;19950;-79
2022/12/25 10:01:30;;;;;;;;;;;7.40;99.90;;;;;;4936120;29;19927;-80
2022/12/25 10:04:10;;;;;;;;;;;7.30;99.90;;;;;;4936167;29;19969;-80
2022/12/25 10:06:41;;;;;;;;;;;7.30;99.90;;;;;;4922007;29;19938;-78
2022/12/25 10:09:17;;;;;;;;;;;7.30;99.90;;;;;;4924832;29;20018;-79
2022/12/25 10:11:51;;;;;;;;;;;7.40;99.90;;;;;;4914866;29;19926;-79
2022/12/25 10:14:22;;;;;;;;;;;7.30;99.90;;;;;;4939804;29;19926;-79
2022/12/25 10:16:53;;;;;;;;;;;7.50;99.90;;;;;;4928598;29;21182;-79
2022/12/25 10:19:26;;;;;;;;;;;7.50;99.90;;;;;;4941431;29;19926;-78
2022/12/25 10:21:56;;;;;;;;;;;7.50;99.90;;;;;;4930645;29;20350;-81
2022/12/25 10:24:28;;;;;;;;;;;7.50;99.90;;;;;;4929129;29;20324;-77
2022/12/25 10:26:55;;;;;;;;;;;7.50;99.90;;;;;;4934165;29;19941;-79
2022/12/25 10:29:22;;;;;;;;;;;7.50;99.90;;;;;;4922423;29;19942;-79
2022/12/25 10:31:52;;;;;;;;;;;7.50;99.90;;;;;;4929952;29;20013;-77
2022/12/25 10:34:19;;;;;;;;;;;7.50;99.90;;;;;;4930047;29;19972;-80
2022/12/25 10:36:48;;;;;;;;;;;7.50;99.90;;;;;;4939237;29;20014;-79
2022/12/25 10:39:16;;;;;;;;;;;7.60;99.90;;;;;;4933586;29;19982;-79
2022/12/25 10:41:53;;;;;;;;;;;7.60;99.90;;;;;;4944250;29;19927;-80
2022/12/25 10:44:20;;;;;;;;;;;7.60;99.90;;;;;;4940881;29;19951;-79
2022/12/25 10:46:48;;;;;;;;;;;7.60;99.90;;;;;;4933329;29;20032;-79
2022/12/25 10:49:16;;;;;;;;;;;7.60;99.90;;;;;;4944018;29;19926;-80
2022/12/25 10:51:43;;;;;;;;;;;7.60;99.90;;;;;;4945497;29;19926;-82
2022/12/25 10:54:20;;;;;;;;;;;7.60;99.90;;;;;;4943305;29;19927;-80
2022/12/25 10:56:52;;;;;;;;;;;7.60;99.90;;;;;;4939511;29;19953;-80
2022/12/25 10:59:19;;;;;;;;;;;7.60;99.90;;;;;;4942836;29;19962;-80
2022/12/25 11:01:45;;;;;;;;;;;7.60;99.90;;;;;;4936147;29;20182;-77
2022/12/25 11:04:17;;;;;;;;;;;7.70;99.90;;;;;;4926491;29;19934;-78
2022/12/25 11:06:44;;;;;;;;;;;7.60;99.90;;;;;;4927907;29;19969;-78
2022/12/25 11:09:16;;;;;;;;;;;7.60;99.90;;;;;;4922858;29;19942;-78
2022/12/25 11:11:46;;;;;;;;;;;7.60;99.90;;;;;;4923315;29;19927;-81
2022/12/25 11:14:16;;;;;;;;;;;7.60;99.90;;;;;;4936919;29;20341;-82
2022/12/25 11:16:43;;;;;;;;;;;7.60;99.90;;;;;;4944909;28;19954;-81
2022/12/25 11:19:23;;;;;;;;;;;7.60;99.90;;;;;;4943454;29;19954;-83
2022/12/25 11:21:50;;;;;;;;;;;7.70;99.90;;;;;;4934235;29;20436;-80
2022/12/25 11:24:18;;;;;;;;;;;7.70;99.90;;;;;;4940767;29;19930;-80
2022/12/25 11:26:48;;;;;;;;;;;7.70;99.90;;;;;;4936821;29;19931;-82
2022/12/25 11:29:21;;;;;;;;;;;7.70;99.90;;;;;;4940218;29;19927;-84
2022/12/25 11:31:50;;;;;;;;;;;7.70;99.90;;;;;;4934092;29;19954;-80
2022/12/25 11:34:23;;;;;;;;;;;7.70;99.90;;;;;;4942827;29;22176;-81
2022/12/25 11:36:51;;;;;;;;;;;7.70;99.90;;;;;;4939202;29;20026;-83
2022/12/25 11:39:21;;;;;;;;;;;7.70;99.90;;;;;;4918293;29;19931;-80
2022/12/25 11:41:51;;;;;;;;;;;7.70;99.90;;;;;;4939617;29;20420;-80
2022/12/25 11:44:25;;;;;;;;;;;7.70;99.90;;;;;;4942164;29;19934;-80
2022/12/25 11:46:53;;;;;;;;;;;7.70;99.90;;;;;;4930888;29;19931;-81
2022/12/25 11:49:21;;;;;;;;;;;7.70;99.90;;;;;;4934680;29;19998;-80
2022/12/25 11:51:50;;;;;;;;;;;7.80;99.90;;;;;;4922473;29;19927;-81
2022/12/25 11:54:19;;;;;;;;;;;7.80;99.90;;;;;;4933129;29;19956;-80
2022/12/25 11:56:46;;;;;;;;;;;7.80;99.90;;;;;;4935910;29;19958;-80
2022/12/25 11:59:18;;;;;;;;;;;7.80;99.90;;;;;;4938975;29;19967;-80
2022/12/25 12:01:56;;;;;;;;;;;7.90;99.90;;;;;;4940459;29;19935;-82
2022/12/25 12:04:25;;;;;;;;;;;8.00;99.90;;;;;;4934970;29;19927;-81
2022/12/25 12:06:54;;;;;;;;;;;8.10;99.90;;;;;;4946923;29;19960;-82
2022/12/25 12:09:30;;;;;;;;;;;8.10;99.90;;;;;;4942168;29;20041;-84
2022/12/25 12:12:01;;;;;;;;;;;8.10;99.90;;;;;;4939942;29;20346;-81
2022/12/25 12:14:38;;;;;;;;;;;8.10;99.90;;;;;;4944369;29;19935;-88
2022/12/25 12:17:05;;;;;;;;;;;8.20;99.90;;;;;;4948872;29;19990;-85
2022/12/25 12:19:33;;;;;;;;;;;8.60;99.90;;;;;;4942281;29;20061;-86
2022/12/25 12:22:01;;;;;;;;;;;8.90;99.90;;;;;;4928865;29;20484;-86
2022/12/25 12:24:29;;;;;;;;;;;8.90;99.90;;;;;;4942491;29;19926;-85
2022/12/25 12:27:00;;;;;;;;;;;8.70;99.90;;;;;;4942003;29;19927;-86
2022/12/25 12:29:29;;;;;;;;;;;8.60;99.90;;;;;;4936563;29;19927;-89
2022/12/25 12:31:58;;;;;;;;;;;8.50;99.90;;;;;;4934302;29;19962;-86
2022/12/25 12:34:26;;;;;;;;;;;8.40;99.90;;;;;;4943935;29;19951;-83
2022/12/25 12:36:57;;;;;;;;;;;8.40;99.90;;;;;;4941344;29;19927;-82
2022/12/25 12:39:25;;;;;;;;;;;8.40;99.90;;;;;;4933629;29;19926;-83
2022/12/25 12:41:52;;;;;;;;;;;8.40;99.90;;;;;;4942673;29;20030;-83
2022/12/25 12:44:20;;;;;;;;;;;8.40;99.90;;;;;;4939373;29;19955;-83
2022/12/25 12:46:51;;;;;;;;;;;8.40;99.90;;;;;;4936066;29;19937;-81
2022/12/25 12:49:23;;;;;;;;;;;8.40;99.90;;;;;;4930517;29;19927;-82
2022/12/25 12:51:50;;;;;;;;;;;8.50;99.90;;;;;;4954233;29;19927;-82
2022/12/25 12:54:19;;;;;;;;;;;8.50;99.90;;;;;;4954682;29;20302;-83
2022/12/25 12:56:56;;;;;;;;;;;8.50;99.90;;;;;;4956367;29;19938;-82
2022/12/25 12:59:24;;;;;;;;;;;8.50;99.90;;;;;;4949513;29;19978;-83
2022/12/25 13:01:55;;;;;;;;;;;8.50;99.90;;;;;;4949523;29;19927;-82
2022/12/25 13:04:31;;;;;;;;;;;8.60;99.90;;;;;;4947622;29;20398;-83
2022/12/25 13:07:02;;;;;;;;;;;8.60;99.90;;;;;;4944758;29;19942;-82
2022/12/25 13:09:35;;;;;;;;;;;8.60;99.90;;;;;;4938444;29;19926;-83
2022/12/25 13:12:05;;;;;;;;;;;8.60;99.90;;;;;;4948228;29;19938;-83
2022/12/25 13:14:32;;;;;;;;;;;8.60;99.90;;;;;;4950592;29;19954;-82
2022/12/25 13:16:59;;;;;;;;;;;8.60;99.90;;;;;;4955894;29;20887;-84
2022/12/25 13:19:27;;;;;;;;;;;8.60;99.90;;;;;;4944455;29;19927;-82
2022/12/25 13:21:56;;;;;;;;;;;8.70;99.90;;;;;;4950715;29;19927;-83
2022/12/25 13:24:24;;;;;;;;;;;8.70;99.90;;;;;;4950851;29;19930;-84
2022/12/25 13:26:51;;;;;;;;;;;8.70;99.90;;;;;;4950588;29;19927;-84
2022/12/25 13:29:28;;;;;;;;;;;8.70;99.90;;;;;;4944634;29;19962;-83
2022/12/25 13:31:55;;;;;;;;;;;8.70;99.90;;;;;;4947997;29;19986;-83
2022/12/25 13:34:27;;;;;;;;;;;8.70;99.90;;;;;;4953187;29;19945;-82
2022/12/25 13:36:54;;;;;;;;;;;8.70;99.90;;;;;;4957202;29;19990;-83
2022/12/25 13:39:23;;;;;;;;;;;8.70;99.90;;;;;;4940824;29;20333;-83
2022/12/25 13:42:08;;;;;;;;;;;8.70;99.90;;;;;;4952747;29;19989;-83
2022/12/25 13:44:43;;;;;;;;;;;8.80;99.90;;;;;;4954157;29;19927;-83
2022/12/25 13:47:15;;;;;;;;;;;8.80;99.90;;;;;;4944504;29;19961;-82
2022/12/25 13:49:42;;;;;;;;;;;8.80;99.90;;;;;;4941785;29;19926;-83
2022/12/25 13:52:10;;;;;;;;;;;8.80;99.90;;;;;;4949578;29;19953;-83
2022/12/25 13:54:39;;;;;;;;;;;8.80;99.90;;;;;;4951095;29;20270;-83
2022/12/25 13:57:10;;;;;;;;;;;8.80;99.90;;;;;;4950070;29;19933;-83
2022/12/25 13:59:37;;;;;;;;;;;8.80;99.90;;;;;;4944210;29;20837;-83
2022/12/25 14:02:04;;;;;;;;;;;8.80;99.90;;;;;;4952756;29;19990;-83
2022/12/25 14:04:31;;;;;;;;;;;8.80;99.90;;;;;;4947317;29;19915;-83
2022/12/25 14:07:08;;;;;;;;;;;8.80;99.90;;;;;;4950749;29;19935;-84
2022/12/25 14:09:35;;;;;;;;;;;8.80;99.90;;;;;;4940229;29;19927;-83
2022/12/25 14:12:04;;;;;;;;;;;8.80;99.90;;;;;;4934020;29;19955;-84
2022/12/25 14:14:31;;;;;;;;;;;8.80;99.90;;;;;;4930862;29;19939;-85
2022/12/25 14:16:59;;;;;;;;;;;8.90;99.90;;;;;;4941677;29;19927;-82
2022/12/25 14:19:27;;;;;;;;;;;8.90;99.90;;;;;;4944204;29;19935;-81
2022/12/25 14:21:56;;;;;;;;;;;8.90;99.90;;;;;;4938627;29;20479;-80
2022/12/25 14:24:25;;;;;;;;;;;8.90;99.90;;;;;;4943239;29;19911;-81
2022/12/25 14:26:57;;;;;;;;;;;8.90;99.90;;;;;;4942633;29;19931;-82
2022/12/25 14:29:26;;;;;;;;;;;8.90;99.90;;;;;;4943865;29;19938;-81
2022/12/25 14:31:55;;;;;;;;;;;8.90;99.90;;;;;;4943689;29;19986;-81
2022/12/25 14:34:23;;;;;;;;;;;8.90;99.90;;;;;;4939504;29;19935;-83
2022/12/25 14:36:54;;;;;;;;;;;8.90;99.90;;;;;;4942625;29;20019;-82
2022/12/25 14:39:26;;;;;;;;;;;8.90;99.90;;;;;;4943364;29;19962;-80
2022/12/25 14:41:53;;;;;;;;;;;9.00;99.90;;;;;;4946334;29;19934;-79
2022/12/25 14:44:33;;;;;;;;;;;9.00;99.90;;;;;;4953982;29;19927;-80
2022/12/25 14:47:04;;;;;;;;;;;9.00;99.90;;;;;;4934029;29;19931;-78
2022/12/25 14:49:31;;;;;;;;;;;9.00;99.90;;;;;;4941591;29;19930;-80
2022/12/25 14:51:58;;;;;;;;;;;9.00;99.90;;;;;;4946252;29;19934;-80
2022/12/25 14:54:25;;;;;;;;;;;9.00;99.90;;;;;;4921585;29;20679;-84
2022/12/25 14:56:54;;;;;;;;;;;9.00;99.90;;;;;;4940994;29;19942;-82
2022/12/25 14:59:25;;;;;;;;;;;9.00;99.90;;;;;;4942161;29;19974;-85
2022/12/25 15:01:55;;;;;;;;;;;9.00;99.90;;;;;;4937335;29;20656;-81
2022/12/25 15:04:22;;;;;;;;;;;9.00;99.90;;;;;;4937676;29;19934;-81
2022/12/25 15:06:53;;;;;;;;;;;9.00;99.90;;;;;;4951274;29;19978;-82
2022/12/25 15:09:22;;;;;;;;;;;9.00;99.90;;;;;;4952198;29;20138;-81
2022/12/25 15:11:49;;;;;;;;;;;9.00;99.90;;;;;;4951977;29;19934;-81
2022/12/25 15:14:15;;;;;;;;;;;9.00;99.90;;;;;;4951959;29;19926;-81
2022/12/25 15:16:43;;;;;;;;;;;9.00;99.90;;;;;;4952271;29;20400;-81
2022/12/25 15:19:15;;;;;;;;;;;9.00;99.90;;;;;;4955243;29;19954;-81
2022/12/25 15:21:43;;;;;;;;;;;9.00;99.90;;;;;;4951824;29;20358;-81
2022/12/25 15:24:11;;;;;;;;;;;9.00;99.90;;;;;;4949999;29;19998;-82
2022/12/25 15:26:38;;;;;;;;;;;9.00;99.90;;;;;;4951701;29;19930;-81
2022/12/25 15:29:06;;;;;;;;;;;9.00;99.90;;;;;;4945378;29;19931;-82
2022/12/25 15:31:34;;;;;;;;;;;9.00;99.90;;;;;;4953761;29;19955;-81
2022/12/25 15:34:01;;;;;;;;;;;9.00;99.90;;;;;;4952504;28;19922;-81
2022/12/25 15:36:30;;;;;;;;;;;9.00;99.90;;;;;;4935792;29;19927;-81
2022/12/25 15:38:57;;;;;;;;;;;9.00;99.90;;;;;;4947536;29;19927;-81
2022/12/25 15:44:10;;;;;;;;;;;9.00;99.90;;;;;;4951047;29;19965;-81
2022/12/25 15:46:37;;;;;;;;;;;9.00;99.90;;;;;;4940227;29;19958;-82
2022/12/25 15:49:04;;;;;;;;;;;9.00;99.90;;;;;;4944485;29;20572;-81
2022/12/25 15:51:33;;;;;;;;;;;9.00;99.90;;;;;;4952543;29;19953;-81
2022/12/25 15:54:00;;;;;;;;;;;9.00;99.90;;;;;;4950684;29;19965;-81
2022/12/25 15:56:27;;;;;;;;;;;9.00;99.90;;;;;;4949659;29;19998;-81
2022/12/25 15:58:54;;;;;;;;;;;9.00;99.90;;;;;;4956959;29;19927;-81
2022/12/25 16:01:21;;;;;;;;;;;9.00;99.90;;;;;;4951188;29;19935;-81
2022/12/25 16:03:48;;;;;;;;;;;9.00;99.90;;;;;;4948999;29;19934;-81
2022/12/25 16:06:16;;;;;;;;;;;9.00;99.90;;;;;;4947878;29;19978;-81
2022/12/25 16:08:44;;;;;;;;;;;9.00;99.90;;;;;;4961869;28;19949;-80
2022/12/25 16:11:11;;;;;;;;;;;9.00;99.90;;;;;;4958829;29;20041;-81
2022/12/25 16:13:38;;;;;;;;;;;9.00;99.90;;;;;;4955087;29;19915;-81
2022/12/25 16:16:06;;;;;;;;;;;9.00;99.90;;;;;;4950022;29;19955;-80
2022/12/25 16:18:32;;;;;;;;;;;9.00;99.90;;;;;;4950418;29;19949;-81
2022/12/25 16:20:59;;;;;;;;;;;9.00;99.90;;;;;;4947343;29;19939;-81
2022/12/25 16:23:26;;;;;;;;;;;9.00;99.90;;;;;;4956331;28;19953;-81
2022/12/25 16:25:54;;;;;;;;;;;9.00;99.90;;;;;;4952398;29;19954;-81